sensor_id;sensor_type;location;lat;lon;timestamp;pressure;altitude;pressure_sealevel;temperature;humidity
56737;BME280;42618;51.226;4.910;2022-09-19T00:01:51;49742.94;;;-146.94;100.00
56737;BME280;42618;51.226;4.910;2022-09-19T00:04:22;49790.81;;;-146.94;100.00
56737;BME280;42618;51.226;4.910;2022-09-19T00:06:50;49774.84;;;-146.94;100.00
56737;BME280;42618;51.226;4.910;2022-09-19T00:09:21;49762.88;;;-146.94;100.00
56737;BME280;42618;51.226;4.910;2022-09-19T00:11:49;49727.00;;;-146.94;100.00
56737;BME280;42618;51.226;4.910;2022-09-19T00:14:18;49756.91;;;-146.94;100.00
56737;BME280;42618;51.226;4.910;2022-09-19T00:16:46;49762.88;;;-146.94;100.00
56737;BME280;42618;51.226;4.910;2022-09-19T00:19:18;49772.84;;;-146.94;100.00
56737;BME280;42618;51.226;4.910;2022-09-19T00:21:47;49768.88;;;-146.94;100.00
56737;BME280;42618;51.226;4.910;2022-09-19T00:24:17;49742.94;;;-146.94;100.00
56737;BME280;42618;51.226;4.910;2022-09-19T00:27:05;49768.88;;;-146.94;100.00
56737;BME280;42618;51.226;4.910;2022-09-19T00:29:33;49780.84;;;-146.94;100.00
56737;BME280;42618;51.226;4.910;2022-09-19T00:32:01;49738.97;;;-146.94;100.00
56737;BME280;42618;51.226;4.910;2022-09-19T00:34:28;49760.91;;;-146.94;100.00
56737;BME280;42618;51.226;4.910;2022-09-19T00:36:56;49762.88;;;-146.94;100.00
56737;BME280;42618;51.226;4.910;2022-09-19T00:39:24;49766.88;;;-146.94;100.00
56737;BME280;42618;51.226;4.910;2022-09-19T00:41:51;49786.81;;;-146.94;100.00
56737;BME280;42618;51.226;4.910;2022-09-19T00:47:12;49742.94;;;-146.94;100.00
56737;BME280;42618;51.226;4.910;2022-09-19T00:49:45;49772.84;;;-146.94;100.00
56737;BME280;42618;51.226;4.910;2022-09-19T00:52:21;49756.91;;;-146.94;100.00
56737;BME280;42618;51.226;4.910;2022-09-19T00:54:54;49760.91;;;-146.94;100.00
56737;BME280;42618;51.226;4.910;2022-09-19T00:57:29;49746.94;;;-146.94;100.00
56737;BME280;42618;51.226;4.910;2022-09-19T01:00:00;49770.88;;;-146.94;100.00
56737;BME280;42618;51.226;4.910;2022-09-19T01:02:27;49744.94;;;-146.94;100.00
56737;BME280;42618;51.226;4.910;2022-09-19T01:04:55;49790.81;;;-146.94;100.00
56737;BME280;42618;51.226;4.910;2022-09-19T01:13:21;49754.91;;;-146.94;100.00
56737;BME280;42618;51.226;4.910;2022-09-19T01:16:15;49770.88;;;-146.94;100.00
56737;BME280;42618;51.226;4.910;2022-09-19T01:18:52;49750.94;;;-146.94;100.00
56737;BME280;42618;51.226;4.910;2022-09-19T01:21:48;49754.91;;;-146.94;100.00
56737;BME280;42618;51.226;4.910;2022-09-19T01:24:50;49780.84;;;-146.94;100.00
56737;BME280;42618;51.226;4.910;2022-09-19T01:30:12;49774.84;;;-146.94;100.00
56737;BME280;42618;51.226;4.910;2022-09-19T01:32:51;49758.91;;;-146.94;100.00
56737;BME280;42618;51.226;4.910;2022-09-19T01:35:25;49758.91;;;-146.94;100.00
56737;BME280;42618;51.226;4.910;2022-09-19T01:38:19;49784.81;;;-146.94;100.00
56737;BME280;42618;51.226;4.910;2022-09-19T01:40:52;49756.91;;;-146.94;100.00
56737;BME280;42618;51.226;4.910;2022-09-19T01:43:22;49744.94;;;-146.94;100.00
56737;BME280;42618;51.226;4.910;2022-09-19T01:45:51;49758.91;;;-146.94;100.00
56737;BME280;42618;51.226;4.910;2022-09-19T01:48:46;49750.94;;;-146.94;100.00
56737;BME280;42618;51.226;4.910;2022-09-19T01:57:11;49762.88;;;-146.94;100.00
56737;BME280;42618;51.226;4.910;2022-09-19T02:02:42;49770.88;;;-146.94;100.00
56737;BME280;42618;51.226;4.910;2022-09-19T02:05:17;49780.84;;;-146.94;100.00
56737;BME280;42618;51.226;4.910;2022-09-19T02:07:56;49770.88;;;-146.94;100.00
56737;BME280;42618;51.226;4.910;2022-09-19T02:10:43;49748.94;;;-146.94;100.00
56737;BME280;42618;51.226;4.910;2022-09-19T02:13:15;49774.84;;;-146.94;100.00
56737;BME280;42618;51.226;4.910;2022-09-19T02:15:49;49796.78;;;-146.94;100.00
56737;BME280;42618;51.226;4.910;2022-09-19T02:18:33;49731.00;;;-146.94;100.00
56737;BME280;42618;51.226;4.910;2022-09-19T02:21:10;49750.94;;;-146.94;100.00
56737;BME280;42618;51.226;4.910;2022-09-19T02:23:45;49778.84;;;-146.94;100.00
56737;BME280;42618;51.226;4.910;2022-09-19T02:26:16;49764.88;;;-146.94;100.00
56737;BME280;42618;51.226;4.910;2022-09-19T02:28:50;49780.84;;;-146.94;100.00
56737;BME280;42618;51.226;4.910;2022-09-19T02:31:22;49731.00;;;-146.94;100.00
56737;BME280;42618;51.226;4.910;2022-09-19T02:34:00;49752.91;;;-146.94;100.00
56737;BME280;42618;51.226;4.910;2022-09-19T02:36:58;49734.97;;;-146.94;100.00
56737;BME280;42618;51.226;4.910;2022-09-19T02:39:36;49758.91;;;-146.94;100.00
56737;BME280;42618;51.226;4.910;2022-09-19T02:45:07;49734.97;;;-146.94;100.00
56737;BME280;42618;51.226;4.910;2022-09-19T02:53:17;49766.88;;;-146.94;100.00
56737;BME280;42618;51.226;4.910;2022-09-19T02:55:49;49786.81;;;-146.94;100.00
56737;BME280;42618;51.226;4.910;2022-09-19T02:58:19;49754.91;;;-146.94;100.00
56737;BME280;42618;51.226;4.910;2022-09-19T03:00:52;49736.97;;;-146.94;100.00
56737;BME280;42618;51.226;4.910;2022-09-19T03:03:29;49786.81;;;-146.94;100.00
56737;BME280;42618;51.226;4.910;2022-09-19T03:06:18;49746.94;;;-146.94;100.00
56737;BME280;42618;51.226;4.910;2022-09-19T03:08:51;49768.88;;;-146.94;100.00
56737;BME280;42618;51.226;4.910;2022-09-19T03:11:25;49734.97;;;-146.94;100.00
56737;BME280;42618;51.226;4.910;2022-09-19T03:13:54;49748.94;;;-146.94;100.00
56737;BME280;42618;51.226;4.910;2022-09-19T03:16:30;49748.94;;;-146.94;100.00
56737;BME280;42618;51.226;4.910;2022-09-19T03:19:09;49808.75;;;-146.94;100.00
56737;BME280;42618;51.226;4.910;2022-09-19T03:21:36;49774.84;;;-146.94;100.00
56737;BME280;42618;51.226;4.910;2022-09-19T03:24:05;49766.88;;;-146.94;100.00
56737;BME280;42618;51.226;4.910;2022-09-19T03:26:35;49734.97;;;-146.94;100.00
56737;BME280;42618;51.226;4.910;2022-09-19T03:29:06;49754.91;;;-146.94;100.00
56737;BME280;42618;51.226;4.910;2022-09-19T03:31:43;49764.88;;;-146.94;100.00
56737;BME280;42618;51.226;4.910;2022-09-19T03:34:14;49768.88;;;-146.94;100.00
56737;BME280;42618;51.226;4.910;2022-09-19T03:36:42;49800.78;;;-146.94;100.00
56737;BME280;42618;51.226;4.910;2022-09-19T03:39:18;49746.94;;;-146.94;100.00
56737;BME280;42618;51.226;4.910;2022-09-19T03:41:51;49800.78;;;-146.94;100.00
56737;BME280;42618;51.226;4.910;2022-09-19T03:44:22;49762.88;;;-146.94;100.00
56737;BME280;42618;51.226;4.910;2022-09-19T03:46:48;49794.78;;;-146.94;100.00
56737;BME280;42618;51.226;4.910;2022-09-19T03:49:15;49766.88;;;-146.94;100.00
56737;BME280;42618;51.226;4.910;2022-09-19T03:51:43;49782.81;;;-146.94;100.00
56737;BME280;42618;51.226;4.910;2022-09-19T03:54:14;49794.78;;;-146.94;100.00
56737;BME280;42618;51.226;4.910;2022-09-19T03:56:43;49790.81;;;-146.94;100.00
56737;BME280;42618;51.226;4.910;2022-09-19T03:59:11;49740.97;;;-146.94;100.00
56737;BME280;42618;51.226;4.910;2022-09-19T04:01:41;49766.88;;;-146.94;100.00
56737;BME280;42618;51.226;4.910;2022-09-19T04:04:08;49748.94;;;-146.94;100.00
56737;BME280;42618;51.226;4.910;2022-09-19T04:06:41;49744.94;;;-146.94;100.00
56737;BME280;42618;51.226;4.910;2022-09-19T04:09:09;49802.75;;;-146.94;100.00
56737;BME280;42618;51.226;4.910;2022-09-19T04:11:36;49784.81;;;-146.94;100.00
56737;BME280;42618;51.226;4.910;2022-09-19T04:14:03;49788.81;;;-146.94;100.00
56737;BME280;42618;51.226;4.910;2022-09-19T04:16:31;49734.97;;;-146.94;100.00
56737;BME280;42618;51.226;4.910;2022-09-19T04:18:58;49758.91;;;-146.94;100.00
56737;BME280;42618;51.226;4.910;2022-09-19T04:21:50;49792.78;;;-146.94;100.00
56737;BME280;42618;51.226;4.910;2022-09-19T04:24:46;49756.91;;;-146.94;100.00
56737;BME280;42618;51.226;4.910;2022-09-19T04:27:19;49772.84;;;-146.94;100.00
56737;BME280;42618;51.226;4.910;2022-09-19T04:29:48;49760.91;;;-146.94;100.00
56737;BME280;42618;51.226;4.910;2022-09-19T04:32:15;49770.88;;;-146.94;100.00
56737;BME280;42618;51.226;4.910;2022-09-19T04:34:45;49780.84;;;-146.94;100.00
56737;BME280;42618;51.226;4.910;2022-09-19T04:37:14;49748.94;;;-146.94;100.00
56737;BME280;42618;51.226;4.910;2022-09-19T04:39:52;49756.91;;;-146.94;100.00
56737;BME280;42618;51.226;4.910;2022-09-19T04:42:19;49748.94;;;-146.94;100.00
56737;BME280;42618;51.226;4.910;2022-09-19T04:44:49;49766.88;;;-146.94;100.00
56737;BME280;42618;51.226;4.910;2022-09-19T04:47:38;49760.91;;;-146.94;100.00
56737;BME280;42618;51.226;4.910;2022-09-19T04:50:06;49794.78;;;-146.94;100.00
56737;BME280;42618;51.226;4.910;2022-09-19T04:52:38;49794.78;;;-146.94;100.00
56737;BME280;42618;51.226;4.910;2022-09-19T04:55:08;49784.81;;;-146.94;100.00
56737;BME280;42618;51.226;4.910;2022-09-19T04:57:36;49772.84;;;-146.94;100.00
56737;BME280;42618;51.226;4.910;2022-09-19T05:00:09;49723.03;;;-146.94;100.00
56737;BME280;42618;51.226;4.910;2022-09-19T05:02:37;49758.91;;;-146.94;100.00
56737;BME280;42618;51.226;4.910;2022-09-19T05:05:05;49776.84;;;-146.94;100.00
56737;BME280;42618;51.226;4.910;2022-09-19T05:07:33;49792.78;;;-146.94;100.00
56737;BME280;42618;51.226;4.910;2022-09-19T05:10:06;49756.91;;;-146.94;100.00
56737;BME280;42618;51.226;4.910;2022-09-19T05:12:35;49762.88;;;-146.94;100.00
56737;BME280;42618;51.226;4.910;2022-09-19T05:15:09;49754.91;;;-146.94;100.00
56737;BME280;42618;51.226;4.910;2022-09-19T05:17:36;49752.91;;;-146.94;100.00
56737;BME280;42618;51.226;4.910;2022-09-19T05:20:08;49756.91;;;-146.94;100.00
56737;BME280;42618;51.226;4.910;2022-09-19T05:22:35;49790.81;;;-146.94;100.00
56737;BME280;42618;51.226;4.910;2022-09-19T05:25:05;49758.91;;;-146.94;100.00
56737;BME280;42618;51.226;4.910;2022-09-19T05:27:32;49802.75;;;-146.94;100.00
56737;BME280;42618;51.226;4.910;2022-09-19T05:30:04;49770.88;;;-146.94;100.00
56737;BME280;42618;51.226;4.910;2022-09-19T05:32:32;49746.94;;;-146.94;100.00
56737;BME280;42618;51.226;4.910;2022-09-19T05:35:18;49742.94;;;-146.94;100.00
56737;BME280;42618;51.226;4.910;2022-09-19T05:38:19;49786.81;;;-146.94;100.00
56737;BME280;42618;51.226;4.910;2022-09-19T05:41:02;49772.84;;;-146.94;100.00
56737;BME280;42618;51.226;4.910;2022-09-19T05:43:43;49802.75;;;-146.94;100.00
56737;BME280;42618;51.226;4.910;2022-09-19T05:46:10;49794.78;;;-146.94;100.00
56737;BME280;42618;51.226;4.910;2022-09-19T05:48:47;49774.84;;;-146.94;100.00
56737;BME280;42618;51.226;4.910;2022-09-19T05:51:13;49794.78;;;-146.94;100.00
56737;BME280;42618;51.226;4.910;2022-09-19T05:53:40;49756.91;;;-146.94;100.00
56737;BME280;42618;51.226;4.910;2022-09-19T05:56:38;49808.75;;;-146.94;100.00
56737;BME280;42618;51.226;4.910;2022-09-19T05:59:09;49736.97;;;-146.94;100.00
56737;BME280;42618;51.226;4.910;2022-09-19T06:01:38;49810.75;;;-146.94;100.00
56737;BME280;42618;51.226;4.910;2022-09-19T06:04:12;49796.78;;;-146.94;100.00
56737;BME280;42618;51.226;4.910;2022-09-19T06:06:40;49754.91;;;-146.94;100.00
56737;BME280;42618;51.226;4.910;2022-09-19T06:09:07;49786.81;;;-146.94;100.00
56737;BME280;42618;51.226;4.910;2022-09-19T06:11:41;49778.84;;;-146.94;100.00
56737;BME280;42618;51.226;4.910;2022-09-19T06:14:08;49754.91;;;-146.94;100.00
56737;BME280;42618;51.226;4.910;2022-09-19T06:16:43;49758.91;;;-146.94;100.00
56737;BME280;42618;51.226;4.910;2022-09-19T06:19:19;49796.78;;;-146.94;100.00
56737;BME280;42618;51.226;4.910;2022-09-19T06:21:56;49770.88;;;-146.94;100.00
56737;BME280;42618;51.226;4.910;2022-09-19T06:24:25;49770.88;;;-146.94;100.00
56737;BME280;42618;51.226;4.910;2022-09-19T06:26:52;49774.84;;;-146.94;100.00
56737;BME280;42618;51.226;4.910;2022-09-19T06:29:26;49758.91;;;-146.94;100.00
56737;BME280;42618;51.226;4.910;2022-09-19T06:32:11;49780.84;;;-146.94;100.00
56737;BME280;42618;51.226;4.910;2022-09-19T06:34:41;49774.84;;;-146.94;100.00
56737;BME280;42618;51.226;4.910;2022-09-19T06:37:26;49744.94;;;-146.94;100.00
56737;BME280;42618;51.226;4.910;2022-09-19T06:39:52;49774.84;;;-146.94;100.00
56737;BME280;42618;51.226;4.910;2022-09-19T06:42:42;49770.88;;;-146.94;100.00
56737;BME280;42618;51.226;4.910;2022-09-19T06:45:25;49774.84;;;-146.94;100.00
56737;BME280;42618;51.226;4.910;2022-09-19T06:48:11;49756.91;;;-146.94;100.00
56737;BME280;42618;51.226;4.910;2022-09-19T06:50:46;49723.03;;;-146.94;100.00
56737;BME280;42618;51.226;4.910;2022-09-19T06:53:17;49770.88;;;-146.94;100.00
56737;BME280;42618;51.226;4.910;2022-09-19T06:55:48;49746.94;;;-146.94;100.00
56737;BME280;42618;51.226;4.910;2022-09-19T06:58:20;49778.84;;;-146.94;100.00
56737;BME280;42618;51.226;4.910;2022-09-19T07:00:49;49778.84;;;-146.94;100.00
56737;BME280;42618;51.226;4.910;2022-09-19T07:03:23;49734.97;;;-146.94;100.00
56737;BME280;42618;51.226;4.910;2022-09-19T07:05:57;49768.88;;;-146.94;100.00
56737;BME280;42618;51.226;4.910;2022-09-19T07:08:52;49768.88;;;-146.94;100.00
56737;BME280;42618;51.226;4.910;2022-09-19T07:11:20;49762.88;;;-146.94;100.00
56737;BME280;42618;51.226;4.910;2022-09-19T07:13:48;49774.84;;;-146.94;100.00
56737;BME280;42618;51.226;4.910;2022-09-19T07:16:17;49740.97;;;-146.94;100.00
56737;BME280;42618;51.226;4.910;2022-09-19T07:18:45;49721.03;;;-146.94;100.00
56737;BME280;42618;51.226;4.910;2022-09-19T07:21:51;49760.91;;;-146.94;100.00
56737;BME280;42618;51.226;4.910;2022-09-19T07:24:37;49742.94;;;-146.94;100.00
56737;BME280;42618;51.226;4.910;2022-09-19T07:27:24;49727.00;;;-146.94;100.00
56737;BME280;42618;51.226;4.910;2022-09-19T07:29:51;49727.00;;;-146.94;100.00
56737;BME280;42618;51.226;4.910;2022-09-19T07:32:18;49758.91;;;-146.94;100.00
56737;BME280;42618;51.226;4.910;2022-09-19T07:34:45;49764.88;;;-146.94;100.00
56737;BME280;42618;51.226;4.910;2022-09-19T07:37:12;49736.97;;;-146.94;100.00
56737;BME280;42618;51.226;4.910;2022-09-19T07:39:43;49721.03;;;-146.94;100.00
56737;BME280;42618;51.226;4.910;2022-09-19T07:42:41;49707.06;;;-146.94;100.00
56737;BME280;42618;51.226;4.910;2022-09-19T07:45:35;49736.97;;;-146.94;100.00
56737;BME280;42618;51.226;4.910;2022-09-19T07:48:28;49731.00;;;-146.94;100.00
56737;BME280;42618;51.226;4.910;2022-09-19T07:51:03;49727.00;;;-146.94;100.00
56737;BME280;42618;51.226;4.910;2022-09-19T07:53:35;49740.97;;;-146.94;100.00
56737;BME280;42618;51.226;4.910;2022-09-19T07:56:02;49723.03;;;-146.94;100.00
56737;BME280;42618;51.226;4.910;2022-09-19T07:58:30;49711.06;;;-146.94;100.00
56737;BME280;42618;51.226;4.910;2022-09-19T08:01:00;49697.09;;;-146.94;100.00
56737;BME280;42618;51.226;4.910;2022-09-19T08:03:46;49681.16;;;-146.94;100.00
56737;BME280;42618;51.226;4.910;2022-09-19T08:06:15;49723.03;;;-146.94;100.00
56737;BME280;42618;51.226;4.910;2022-09-19T08:08:42;49691.13;;;-146.94;100.00
56737;BME280;42618;51.226;4.910;2022-09-19T08:11:29;49683.16;;;-146.94;100.00
56737;BME280;42618;51.226;4.910;2022-09-19T08:13:55;49736.97;;;-146.94;98.11
56737;BME280;42618;51.226;4.910;2022-09-19T08:16:24;49677.16;;;-146.94;98.15
56737;BME280;42618;51.226;4.910;2022-09-19T08:18:52;49695.09;;;-146.94;96.29
56737;BME280;42618;51.226;4.910;2022-09-19T08:21:19;49685.13;;;-146.94;96.83
56737;BME280;42618;51.226;4.910;2022-09-19T08:23:46;49691.13;;;-146.94;95.81
56737;BME280;42618;51.226;4.910;2022-09-19T08:26:15;49693.13;;;-146.94;93.00
56737;BME280;42618;51.226;4.910;2022-09-19T08:28:43;49681.16;;;-146.94;91.23
56737;BME280;42618;51.226;4.910;2022-09-19T08:31:11;49691.13;;;-146.94;90.44
56737;BME280;42618;51.226;4.910;2022-09-19T08:33:41;49725.00;;;-146.94;91.44
56737;BME280;42618;51.226;4.910;2022-09-19T08:36:09;49683.16;;;-146.94;89.43
56737;BME280;42618;51.226;4.910;2022-09-19T08:38:37;49665.22;;;-146.94;89.41
56737;BME280;42618;51.226;4.910;2022-09-19T08:41:27;49703.09;;;-146.94;89.91
56737;BME280;42618;51.226;4.910;2022-09-19T08:44:13;49669.19;;;-146.94;90.58
56737;BME280;42618;51.226;4.910;2022-09-19T08:47:06;49709.06;;;-146.94;90.03
56737;BME280;42618;51.226;4.910;2022-09-19T08:49:38;49667.19;;;-146.94;88.33
56737;BME280;42618;51.226;4.910;2022-09-19T08:54:46;49681.16;;;-146.94;88.02
56737;BME280;42618;51.226;4.910;2022-09-19T08:57:26;49679.16;;;-146.94;85.46
56737;BME280;42618;51.226;4.910;2022-09-19T09:00:05;49671.19;;;-146.94;84.55
56737;BME280;42618;51.226;4.910;2022-09-19T09:11:23;49679.16;;;-146.94;83.09
56737;BME280;42618;51.226;4.910;2022-09-19T09:22:15;49659.22;;;-146.94;87.59
56737;BME280;42618;51.226;4.910;2022-09-19T09:25:11;49663.22;;;-146.94;86.68
56737;BME280;42618;51.226;4.910;2022-09-19T09:27:56;49711.06;;;-146.94;87.37
56737;BME280;42618;51.226;4.910;2022-09-19T09:30:37;49685.13;;;-146.94;86.85
56737;BME280;42618;51.226;4.910;2022-09-19T09:33:13;49683.16;;;-146.94;85.81
56737;BME280;42618;51.226;4.910;2022-09-19T09:35:52;49665.22;;;-146.94;85.54
56737;BME280;42618;51.226;4.910;2022-09-19T09:38:32;49637.28;;;-146.94;84.43
56737;BME280;42618;51.226;4.910;2022-09-19T09:41:26;49647.25;;;-146.94;83.76
56737;BME280;42618;51.226;4.910;2022-09-19T09:47:04;49677.16;;;-146.94;76.03
56737;BME280;42618;51.226;4.910;2022-09-19T09:49:39;49681.16;;;-146.94;75.22
56737;BME280;42618;51.226;4.910;2022-09-19T09:52:44;49629.31;;;-146.94;73.24
56737;BME280;42618;51.226;4.910;2022-09-19T09:55:39;49659.22;;;-146.94;70.69
56737;BME280;42618;51.226;4.910;2022-09-19T10:01:50;49663.22;;;-146.94;68.84
56737;BME280;42618;51.226;4.910;2022-09-19T10:04:47;49629.31;;;-146.94;69.34
56737;BME280;42618;51.226;4.910;2022-09-19T10:07:19;49647.25;;;-146.94;69.48
56737;BME280;42618;51.226;4.910;2022-09-19T10:10:02;49619.34;;;-146.94;66.23
56737;BME280;42618;51.226;4.910;2022-09-19T10:12:55;49639.28;;;-146.94;65.66
56737;BME280;42618;51.226;4.910;2022-09-19T10:15:30;49619.34;;;-146.94;65.38
56737;BME280;42618;51.226;4.910;2022-09-19T10:18:08;49655.25;;;-146.94;67.13
56737;BME280;42618;51.226;4.910;2022-09-19T10:20:51;49653.25;;;-146.94;67.05
56737;BME280;42618;51.226;4.910;2022-09-19T10:23:29;49623.34;;;-146.94;68.36
56737;BME280;42618;51.226;4.910;2022-09-19T10:26:04;49667.19;;;-146.94;67.39
56737;BME280;42618;51.226;4.910;2022-09-19T10:28:36;49581.47;;;-146.94;69.38
56737;BME280;42618;51.226;4.910;2022-09-19T10:31:33;49635.31;;;-146.94;67.56
56737;BME280;42618;51.226;4.910;2022-09-19T10:34:24;49651.25;;;-146.94;67.71
56737;BME280;42618;51.226;4.910;2022-09-19T10:37:00;49633.31;;;-146.94;65.12
56737;BME280;42618;51.226;4.910;2022-09-19T10:39:41;49613.38;;;-146.94;62.99
56737;BME280;42618;51.226;4.910;2022-09-19T10:42:33;49623.34;;;-146.94;62.26
56737;BME280;42618;51.226;4.910;2022-09-19T10:47:45;49623.34;;;-146.94;63.59
56737;BME280;42618;51.226;4.910;2022-09-19T10:50:18;49647.25;;;-146.94;62.60
56737;BME280;42618;51.226;4.910;2022-09-19T10:53:04;49579.47;;;-146.94;64.12
56737;BME280;42618;51.226;4.910;2022-09-19T10:55:34;49609.38;;;-146.94;61.46
56737;BME280;42618;51.226;4.910;2022-09-19T10:58:14;49627.31;;;-146.94;60.43
56737;BME280;42618;51.226;4.910;2022-09-19T11:00:51;49595.44;;;-146.94;59.26
56737;BME280;42618;51.226;4.910;2022-09-19T11:03:28;49611.38;;;-146.94;52.03
56737;BME280;42618;51.226;4.910;2022-09-19T11:06:15;49565.53;;;-146.94;52.56
56737;BME280;42618;51.226;4.910;2022-09-19T11:08:49;49611.38;;;-146.94;52.15
56737;BME280;42618;51.226;4.910;2022-09-19T11:11:41;49627.31;;;-146.94;53.85
56737;BME280;42618;51.226;4.910;2022-09-19T11:25:37;49589.44;;;-146.94;48.07
56737;BME280;42618;51.226;4.910;2022-09-19T11:28:28;49567.53;;;-146.94;47.07
56737;BME280;42618;51.226;4.910;2022-09-19T11:31:08;49559.56;;;-146.94;45.90
56737;BME280;42618;51.226;4.910;2022-09-19T11:34:02;49535.63;;;-146.94;47.49
56737;BME280;42618;51.226;4.910;2022-09-19T11:37:51;49575.50;;;-146.94;49.42
56737;BME280;42618;51.226;4.910;2022-09-19T11:43:11;49583.47;;;-146.94;48.67
56737;BME280;42618;51.226;4.910;2022-09-19T11:46:36;49587.47;;;-146.94;50.67
56737;BME280;42618;51.226;4.910;2022-09-19T12:11:05;49557.56;;;-146.94;50.61
56737;BME280;42618;51.226;4.910;2022-09-19T12:16:17;49561.53;;;-146.94;49.96
56737;BME280;42618;51.226;4.910;2022-09-19T12:19:02;49585.47;;;-146.94;50.56
56737;BME280;42618;51.226;4.910;2022-09-19T12:22:18;49567.53;;;-146.94;48.06
56737;BME280;42618;51.226;4.910;2022-09-19T12:24:28;49583.47;;;-146.94;47.62
56737;BME280;42618;51.226;4.910;2022-09-19T12:30:05;49519.69;;;-146.94;46.56
56737;BME280;42618;51.226;4.910;2022-09-19T12:32:54;49531.63;;;-146.94;45.37
56737;BME280;42618;51.226;4.910;2022-09-19T12:35:51;49523.66;;;-146.94;45.04
56737;BME280;42618;51.226;4.910;2022-09-19T12:38:34;49523.66;;;-146.94;44.19
56737;BME280;42618;51.226;4.910;2022-09-19T12:41:14;49525.66;;;-146.94;44.06
56737;BME280;42618;51.226;4.910;2022-09-19T12:44:01;49543.59;;;-146.94;43.64
56737;BME280;42618;51.226;4.910;2022-09-19T12:52:56;49591.44;;;-146.94;45.61
56737;BME280;42618;51.226;4.910;2022-09-19T12:55:33;49603.41;;;-146.94;45.71
56737;BME280;42618;51.226;4.910;2022-09-19T12:58:17;49547.59;;;-146.94;45.12
56737;BME280;42618;51.226;4.910;2022-09-19T13:00:47;49555.56;;;-146.94;45.39
56737;BME280;42618;51.226;4.910;2022-09-19T13:03:23;49569.50;;;-146.94;45.52
56737;BME280;42618;51.226;4.910;2022-09-19T13:06:03;49509.72;;;-146.94;45.10
56737;BME280;42618;51.226;4.910;2022-09-19T13:08:36;49507.72;;;-146.94;43.18
56737;BME280;42618;51.226;4.910;2022-09-19T13:11:24;49527.66;;;-146.94;43.21
56737;BME280;42618;51.226;4.910;2022-09-19T13:14:03;49481.81;;;-146.94;41.62
56737;BME280;42618;51.226;4.910;2022-09-19T13:16:35;49463.88;;;-146.94;38.91
56737;BME280;42618;51.226;4.910;2022-09-19T13:19:38;49433.97;;;-146.94;38.03
56737;BME280;42618;51.226;4.910;2022-09-19T13:22:27;49473.84;;;-146.94;36.91
56737;BME280;42618;51.226;4.910;2022-09-19T13:25:17;49435.97;;;-146.94;35.38
56737;BME280;42618;51.226;4.910;2022-09-19T13:27:45;49493.75;;;-146.94;35.50
56737;BME280;42618;51.226;4.910;2022-09-19T13:30:41;49449.91;;;-146.94;35.24
56737;BME280;42618;51.226;4.910;2022-09-19T13:33:26;49475.81;;;-146.94;34.88
56737;BME280;42618;51.226;4.910;2022-09-19T13:36:06;49475.81;;;-146.94;34.78
56737;BME280;42618;51.226;4.910;2022-09-19T13:38:42;49533.63;;;-146.94;35.08
56737;BME280;42618;51.226;4.910;2022-09-19T13:46:56;49519.69;;;-146.94;38.97
56737;BME280;42618;51.226;4.910;2022-09-19T13:49:29;49561.53;;;-146.94;40.72
56737;BME280;42618;51.226;4.910;2022-09-19T13:52:06;49535.63;;;-146.94;41.92
56737;BME280;42618;51.226;4.910;2022-09-19T13:54:58;49541.59;;;-146.94;43.03
56737;BME280;42618;51.226;4.910;2022-09-19T13:57:25;49451.91;;;-146.94;39.25
56737;BME280;42618;51.226;4.910;2022-09-19T13:59:56;49455.88;;;-146.94;37.98
56737;BME280;42618;51.226;4.910;2022-09-19T14:05:01;49435.97;;;-146.94;36.05
56737;BME280;42618;51.226;4.910;2022-09-19T14:10:28;49447.91;;;-146.94;35.15
56737;BME280;42618;51.226;4.910;2022-09-19T14:12:58;49431.97;;;-146.94;35.48
56737;BME280;42618;51.226;4.910;2022-09-19T14:15:46;49451.91;;;-146.94;35.95
56737;BME280;42618;51.226;4.910;2022-09-19T14:23:12;49435.97;;;-146.94;35.58
56737;BME280;42618;51.226;4.910;2022-09-19T14:25:40;49418.00;;;-146.94;35.21
56737;BME280;42618;51.226;4.910;2022-09-19T14:48:36;49497.75;;;-146.94;38.52
56737;BME280;42618;51.226;4.910;2022-09-19T14:51:23;49527.66;;;-146.94;40.64
56737;BME280;42618;51.226;4.910;2022-09-19T14:54:17;49545.59;;;-146.94;42.14
56737;BME280;42618;51.226;4.910;2022-09-19T14:59:19;49469.84;;;-146.94;38.69
56737;BME280;42618;51.226;4.910;2022-09-19T15:01:49;49501.75;;;-146.94;39.32
56737;BME280;42618;51.226;4.910;2022-09-19T15:04:24;49511.72;;;-146.94;41.16
56737;BME280;42618;51.226;4.910;2022-09-19T15:06:53;49517.69;;;-146.94;42.05
56737;BME280;42618;51.226;4.910;2022-09-19T15:09:36;49505.72;;;-146.94;42.52
56737;BME280;42618;51.226;4.910;2022-09-19T15:12:33;49437.94;;;-146.94;41.28
56737;BME280;42618;51.226;4.910;2022-09-19T15:15:03;49435.97;;;-146.94;40.58
56737;BME280;42618;51.226;4.910;2022-09-19T15:17:31;49483.81;;;-146.94;47.23
56737;BME280;42618;51.226;4.910;2022-09-19T15:20:09;49577.50;;;-146.94;61.11
56737;BME280;42618;51.226;4.910;2022-09-19T15:22:44;49565.53;;;-146.94;65.21
56737;BME280;42618;51.226;4.910;2022-09-19T15:25:35;49549.59;;;-146.94;67.28
56737;BME280;42618;51.226;4.910;2022-09-19T15:28:25;49559.56;;;-146.94;68.61
56737;BME280;42618;51.226;4.910;2022-09-19T15:30:54;49551.56;;;-146.94;68.30
56737;BME280;42618;51.226;4.910;2022-09-19T15:33:27;49535.63;;;-146.94;69.70
56737;BME280;42618;51.226;4.910;2022-09-19T15:35:57;49591.44;;;-146.94;69.38
56737;BME280;42618;51.226;4.910;2022-09-19T15:38:34;49547.59;;;-146.94;69.24
56737;BME280;42618;51.226;4.910;2022-09-19T15:41:05;49547.59;;;-146.94;72.04
56737;BME280;42618;51.226;4.910;2022-09-19T15:43:33;49539.63;;;-146.94;71.25
56737;BME280;42618;51.226;4.910;2022-09-19T15:46:04;49475.81;;;-146.94;66.37